Time;durP1;ratioP1;P1;durP2;ratioP2;P2;SDS_P1;SDS_P2;PMS_P1;PMS_P2;Temp;Humidity;BMP_temperature;BMP_pressure;BME280_temperature;BME280_humidity;BME280_pressure;Samples;Min_cycle;Max_cycle;Signal;HPM_P1;HPM_P2
2022/01/05 00:01:08;;;;;;;248.38;196.80;;;20.30;50.90;;;;;;4353645;60;21079;-35
2022/01/05 00:06:09;;;;;;;243.93;190.32;;;20.30;50.80;;;;;;4351198;60;21530;-36
2022/01/05 00:11:10;;;;;;;241.12;189.82;;;20.30;50.70;;;;;;4355292;60;21072;-34
2022/01/05 00:16:12;;;;;;;244.00;192.95;;;20.30;50.70;;;;;;4376307;60;21586;-35
2022/01/05 00:21:13;;;;;;;236.62;187.88;;;20.30;50.60;;;;;;4359150;60;21542;-36
2022/01/05 00:26:16;;;;;;;239.73;187.60;;;20.30;50.60;;;;;;4338672;64;21100;-31
2022/01/05 00:31:17;;;;;;;250.93;194.60;;;20.30;50.60;;;;;;4355611;60;21510;-35
2022/01/05 00:36:18;;;;;;;234.30;178.98;;;20.30;50.60;;;;;;4358059;60;21079;-35
2022/01/05 00:41:19;;;;;;;241.98;193.50;;;20.30;50.60;;;;;;4343574;60;21562;-32
2022/01/05 00:46:20;;;;;;;246.77;191.37;;;20.30;50.50;;;;;;4349991;60;21118;-35
2022/01/05 00:51:21;;;;;;;244.57;192.82;;;20.30;50.50;;;;;;4337998;64;21084;-35
2022/01/05 00:56:22;;;;;;;248.20;194.25;;;20.30;50.40;;;;;;4339175;61;21522;-35
2022/01/05 01:01:22;;;;;;;228.00;176.12;;;20.30;50.30;;;;;;4345011;60;21071;-36
2022/01/05 01:06:23;;;;;;;242.25;188.57;;;20.30;50.30;;;;;;4348745;60;21067;-37
2022/01/05 01:11:24;;;;;;;244.80;189.48;;;20.30;50.20;;;;;;4358720;60;21185;-35
2022/01/05 01:16:25;;;;;;;235.80;182.65;;;20.30;50.30;;;;;;4356511;60;21600;-37
2022/01/05 01:21:26;;;;;;;243.90;187.27;;;20.30;50.20;;;;;;4346336;60;21502;-35
2022/01/05 01:26:30;;;;;;;237.05;182.43;;;20.30;50.20;;;;;;4373286;60;21116;-32
2022/01/05 01:31:31;;;;;;;238.23;183.60;;;20.20;50.10;;;;;;4363568;60;21063;-35
2022/01/05 01:36:31;;;;;;;233.38;178.60;;;20.30;50.10;;;;;;4354861;60;21657;-36
2022/01/05 01:41:32;;;;;;;234.60;179.32;;;20.30;50.00;;;;;;4342658;60;21054;-36
2022/01/05 01:46:33;;;;;;;234.40;180.75;;;20.30;50.00;;;;;;4349050;60;21238;-36
2022/01/05 01:51:34;;;;;;;238.87;181.85;;;20.20;49.90;;;;;;4338466;61;21059;-37
2022/01/05 01:56:38;;;;;;;232.90;176.93;;;20.20;49.80;;;;;;4364058;60;21136;-36
2022/01/05 02:01:42;;;;;;;220.15;166.88;;;20.20;49.80;;;;;;4350700;60;21057;-33
2022/01/05 02:06:43;;;;;;;230.90;178.10;;;20.20;49.80;;;;;;4380682;60;21097;-32
2022/01/05 02:11:44;;;;;;;231.87;176.02;;;20.20;49.70;;;;;;4338853;64;21577;-33
2022/01/05 02:16:45;;;;;;;236.80;181.30;;;20.20;49.70;;;;;;4338705;64;21144;-30
2022/01/05 02:21:46;;;;;;;225.65;167.40;;;20.20;49.70;;;;;;4354557;60;21529;-30
2022/01/05 02:26:47;;;;;;;223.75;169.05;;;20.20;49.70;;;;;;4353976;60;21055;-29
2022/01/05 02:31:48;;;;;;;222.23;167.95;;;20.20;49.70;;;;;;4347537;60;21138;-34
2022/01/05 02:36:49;;;;;;;230.07;173.65;;;20.20;49.70;;;;;;4361768;60;21566;-35
2022/01/05 02:41:50;;;;;;;219.27;165.55;;;20.20;49.60;;;;;;4365971;60;21605;-35
2022/01/05 02:46:51;;;;;;;220.65;166.50;;;20.20;49.60;;;;;;4360863;60;21522;-32
2022/01/05 02:51:52;;;;;;;213.40;160.10;;;20.20;50.10;;;;;;4357735;60;21126;-37
2022/01/05 02:56:53;;;;;;;218.88;165.68;;;20.20;49.50;;;;;;4354612;60;21558;-37
2022/01/05 03:01:54;;;;;;;220.32;166.27;;;20.20;49.40;;;;;;4380724;60;21108;-35
2022/01/05 03:06:55;;;;;;;218.93;161.60;;;20.20;49.50;;;;;;4372133;60;21071;-36
2022/01/05 03:11:56;;;;;;;213.30;152.68;;;20.20;49.40;;;;;;4338590;64;21142;-36
2022/01/05 03:16:57;;;;;;;200.50;145.90;;;20.20;49.30;;;;;;4359810;60;21039;-36
2022/01/05 03:21:58;;;;;;;216.00;162.32;;;20.20;49.30;;;;;;4341755;60;21039;-35
2022/01/05 03:26:58;;;;;;;212.60;160.88;;;20.20;49.30;;;;;;4361774;60;21076;-34
2022/01/05 03:32:00;;;;;;;210.32;155.40;;;20.20;49.20;;;;;;4340739;60;21112;-26
2022/01/05 03:37:01;;;;;;;206.05;152.82;;;20.20;49.20;;;;;;4344416;60;21096;-31
2022/01/05 03:42:03;;;;;;;194.43;146.00;;;20.20;49.20;;;;;;4339318;60;21101;-35
2022/01/05 03:47:04;;;;;;;197.98;146.15;;;20.20;49.10;;;;;;4346495;60;21174;-33
2022/01/05 03:52:08;;;;;;;195.90;146.85;;;20.20;49.10;;;;;;4414469;60;21153;-35
2022/01/05 03:57:09;;;;;;;199.70;152.43;;;20.20;49.10;;;;;;4349747;60;21107;-35
2022/01/05 04:02:10;;;;;;;201.70;152.12;;;20.20;49.80;;;;;;4367709;60;21107;-35
2022/01/05 04:07:11;;;;;;;203.70;151.55;;;20.20;49.00;;;;;;4359004;60;21226;-34
2022/01/05 04:12:12;;;;;;;199.20;151.37;;;20.20;49.00;;;;;;4371238;60;21076;-34
2022/01/05 04:17:13;;;;;;;184.43;136.37;;;20.20;49.00;;;;;;4359717;60;21095;-30
2022/01/05 04:22:13;;;;;;;192.85;147.80;;;20.20;49.00;;;;;;4378037;60;21112;-35
2022/01/05 04:27:15;;;;;;;190.77;143.00;;;20.20;48.90;;;;;;4365861;60;21614;-33
2022/01/05 04:32:16;;;;;;;185.77;139.37;;;20.20;48.90;;;;;;4364401;60;21546;-35
2022/01/05 04:37:18;;;;;;;181.70;138.70;;;20.20;48.90;;;;;;4365539;60;21055;-31
2022/01/05 04:42:19;;;;;;;182.57;141.15;;;20.20;48.90;;;;;;4355225;60;21502;-34
2022/01/05 04:47:20;;;;;;;187.70;141.68;;;20.20;48.80;;;;;;4338550;64;21067;-30
2022/01/05 04:52:21;;;;;;;184.07;139.62;;;20.20;48.90;;;;;;4359075;60;21095;-33
2022/01/05 04:57:21;;;;;;;184.02;137.10;;;20.20;49.00;;;;;;4349089;60;21557;-33
2022/01/05 05:02:22;;;;;;;187.75;140.23;;;20.20;48.90;;;;;;4359201;60;21618;-33
2022/01/05 05:07:23;;;;;;;183.57;139.93;;;20.10;48.80;;;;;;4384759;60;21059;-30
2022/01/05 05:12:24;;;;;;;175.93;133.63;;;20.20;48.90;;;;;;4342954;60;21067;-32
2022/01/05 05:17:25;;;;;;;177.80;135.23;;;20.20;49.10;;;;;;4354932;60;21064;-31
2022/01/05 05:22:26;;;;;;;174.60;133.07;;;20.10;48.80;;;;;;4386644;60;21629;-35
2022/01/05 05:27:27;;;;;;;170.87;130.80;;;20.20;48.90;;;;;;4348312;60;21128;-37
2022/01/05 05:32:30;;;;;;;169.45;126.32;;;20.20;49.30;;;;;;4339100;61;21055;-37
2022/01/05 05:37:31;;;;;;;164.52;123.97;;;20.20;49.00;;;;;;4357725;60;21063;-32
2022/01/05 05:42:32;;;;;;;166.85;127.90;;;20.20;49.10;;;;;;4404084;60;21084;-30
2022/01/05 05:47:33;;;;;;;158.70;123.65;;;20.10;49.10;;;;;;4342459;60;21067;-36
2022/01/05 05:52:34;;;;;;;167.73;128.52;;;20.20;49.20;;;;;;4355350;60;21510;-29
2022/01/05 05:57:36;;;;;;;152.32;117.68;;;20.20;49.30;;;;;;4357303;60;21067;-34
2022/01/05 06:02:37;;;;;;;157.35;120.93;;;20.20;49.30;;;;;;4356176;60;21048;-34
2022/01/05 06:07:38;;;;;;;164.35;125.00;;;20.20;49.30;;;;;;4361812;60;21894;-33
2022/01/05 06:12:39;;;;;;;164.05;124.80;;;20.10;49.30;;;;;;4343942;60;21506;-35
2022/01/05 06:17:40;;;;;;;155.73;118.07;;;20.20;49.40;;;;;;4362499;60;21071;-34
2022/01/05 06:22:42;;;;;;;155.32;120.20;;;20.20;49.40;;;;;;4418114;60;21518;-26
2022/01/05 06:27:44;;;;;;;150.68;115.05;;;20.10;49.30;;;;;;4385814;60;21063;-36
2022/01/05 06:32:46;;;;;;;146.05;112.32;;;20.10;49.30;;;;;;4343966;60;21072;-37
2022/01/05 06:37:47;;;;;;;147.55;117.07;;;20.20;49.40;;;;;;4353057;60;21161;-39
2022/01/05 06:42:48;;;;;;;149.23;114.72;;;20.10;49.20;;;;;;4344997;60;21687;-37
2022/01/05 06:47:48;;;;;;;147.02;113.55;;;20.10;49.20;;;;;;4346665;60;21464;-34
2022/01/05 06:52:50;;;;;;;143.80;110.10;;;20.20;49.30;;;;;;4352615;60;21095;-34
2022/01/05 06:57:51;;;;;;;145.75;111.37;;;20.20;49.20;;;;;;4368877;60;22072;-33
2022/01/05 07:02:52;;;;;;;143.07;108.75;;;20.10;49.10;;;;;;4339591;60;21153;-35
2022/01/05 07:07:53;;;;;;;141.80;109.25;;;20.10;49.10;;;;;;4353678;60;21285;-37
2022/01/05 07:12:54;;;;;;;143.13;108.65;;;20.10;49.10;;;;;;4362059;60;22458;-37
2022/01/05 07:17:55;;;;;;;131.93;101.00;;;20.10;49.00;;;;;;4352543;60;21229;-33
2022/01/05 07:22:56;;;;;;;141.37;109.18;;;20.10;49.00;;;;;;4338150;64;21032;-33
2022/01/05 07:27:57;;;;;;;143.37;111.40;;;20.10;49.00;;;;;;4343492;60;21546;-36
2022/01/05 07:32:58;;;;;;;136.43;104.45;;;20.20;49.10;;;;;;4380704;60;21205;-34
2022/01/05 07:37:59;;;;;;;135.70;102.45;;;20.10;48.90;;;;;;4339131;64;21063;-34
2022/01/05 07:43:01;;;;;;;132.35;103.25;;;20.10;48.90;;;;;;4368896;60;21044;-35
2022/01/05 07:48:04;;;;;;;141.27;109.47;;;20.20;48.90;;;;;;4354171;60;22332;-34
2022/01/05 07:53:05;;;;;;;140.85;109.72;;;20.10;48.90;;;;;;4367292;60;21195;-35
2022/01/05 07:58:06;;;;;;;137.37;107.32;;;20.10;48.80;;;;;;4351875;60;21589;-28
2022/01/05 08:03:07;;;;;;;132.90;103.75;;;20.20;48.80;;;;;;4348606;60;21548;-27
2022/01/05 08:08:08;;;;;;;135.82;102.32;;;20.10;48.80;;;;;;4340119;60;21059;-33
2022/01/05 08:13:09;;;;;;;133.50;102.57;;;20.20;49.20;;;;;;4351379;60;21152;-35
2022/01/05 08:18:10;;;;;;;129.65;101.05;;;20.20;49.30;;;;;;4374227;60;21185;-29
2022/01/05 08:23:17;;;;;;;133.12;102.53;;;20.30;49.50;;;;;;4370593;60;22013;-30
2022/01/05 08:28:19;;;;;;;129.10;100.30;;;20.30;49.70;;;;;;4354003;60;21059;-35
2022/01/05 08:33:20;;;;;;;127.78;98.82;;;20.30;49.70;;;;;;4343695;60;21096;-33
2022/01/05 08:38:21;;;;;;;136.52;106.03;;;20.40;50.20;;;;;;4342997;60;21056;-31
2022/01/05 08:43:22;;;;;;;138.20;106.35;;;20.40;50.10;;;;;;4338692;60;21170;-33
2022/01/05 08:48:23;;;;;;;131.63;99.97;;;20.40;50.10;;;;;;4342553;60;21625;-34
2022/01/05 08:53:24;;;;;;;142.35;109.97;;;20.50;50.30;;;;;;4343292;60;21094;-32
2022/01/05 08:58:25;;;;;;;131.82;104.68;;;20.50;50.40;;;;;;4349065;60;21167;-30
2022/01/05 09:03:26;;;;;;;133.77;106.03;;;20.50;50.50;;;;;;4344200;60;22740;-32
2022/01/05 09:08:27;;;;;;;141.93;109.90;;;20.60;50.70;;;;;;4343433;60;21116;-31
2022/01/05 09:13:28;;;;;;;138.48;108.90;;;20.60;50.70;;;;;;4343122;60;21613;-35
2022/01/05 09:18:29;;;;;;;143.13;111.78;;;20.60;50.70;;;;;;4353494;60;21115;-31
2022/01/05 09:23:30;;;;;;;137.40;108.28;;;20.60;50.60;;;;;;4367402;60;21087;-34
2022/01/05 09:28:31;;;;;;;143.30;113.30;;;20.60;50.50;;;;;;4347989;60;21079;-34
2022/01/05 09:33:32;;;;;;;140.20;110.28;;;20.60;50.50;;;;;;4338231;64;21052;-34
2022/01/05 09:38:37;;;;;;;144.32;111.80;;;20.60;50.50;;;;;;4369758;60;21086;-34
2022/01/05 09:43:51;;;;;;;148.48;114.03;;;20.60;50.40;;;;;;4340154;60;21557;-32
2022/01/05 09:49:10;;;;;;;148.20;115.50;;;20.60;50.40;;;;;;4383792;60;21574;-33
2022/01/05 09:54:12;;;;;;;142.77;111.05;;;20.60;50.70;;;;;;4362561;60;22194;-34
2022/01/05 09:59:16;;;;;;;149.85;115.15;;;20.60;50.80;;;;;;4368058;60;21506;-34
2022/01/05 10:04:16;;;;;;;141.10;111.72;;;20.60;51.00;;;;;;4379810;60;21123;-35
2022/01/05 10:09:17;;;;;;;150.50;115.00;;;20.70;51.50;;;;;;4353892;60;21526;-34
2022/01/05 10:14:18;;;;;;;148.93;115.75;;;20.80;51.60;;;;;;4339151;60;21205;-35
2022/01/05 10:19:21;;;;;;;147.77;116.85;;;20.80;51.80;;;;;;4359249;60;21558;-33
2022/01/05 10:24:44;;;;;;;150.57;117.93;;;20.90;52.90;;;;;;4352689;60;22341;-32
2022/01/05 10:31:19;;;;;;;154.43;117.22;;;20.90;52.40;;;;;;4343912;60;21071;-33
2022/01/05 10:36:21;;;;;;;147.82;113.80;;;21.00;52.70;;;;;;4338503;64;21163;-35
2022/01/05 10:41:27;;;;;;;150.95;118.13;;;21.00;52.90;;;;;;4360860;60;21044;-34
2022/01/05 10:46:43;;;;;;;152.15;117.93;;;21.00;53.20;;;;;;4339201;60;21043;-33
2022/01/05 10:51:44;;;;;;;153.33;117.73;;;21.10;54.10;;;;;;4337825;61;21147;-29
2022/01/05 10:56:46;;;;;;;153.45;119.82;;;21.10;53.50;;;;;;4340656;60;21781;-31
2022/01/05 11:01:49;;;;;;;163.52;124.28;;;21.10;53.70;;;;;;4352059;60;21533;-35
2022/01/05 11:06:59;;;;;;;155.55;118.75;;;21.20;53.90;;;;;;4342582;60;21546;-32
2022/01/05 11:12:00;;;;;;;154.73;120.13;;;21.20;54.00;;;;;;4343909;60;21068;-34
2022/01/05 11:17:03;;;;;;;153.20;120.60;;;21.20;54.10;;;;;;4345621;60;21071;-33
2022/01/05 11:22:14;;;;;;;157.25;124.72;;;21.20;54.20;;;;;;4365502;60;21059;-30
2022/01/05 11:27:24;;;;;;;158.48;122.25;;;21.20;54.40;;;;;;4394837;60;21051;-34
2022/01/05 11:32:30;;;;;;;152.43;119.32;;;21.30;54.70;;;;;;4338352;64;21181;-34
2022/01/05 11:37:31;;;;;;;159.27;125.62;;;21.30;54.80;;;;;;4350895;60;21570;-32
2022/01/05 11:42:35;;;;;;;162.62;125.22;;;21.30;54.90;;;;;;4341210;60;21032;-31
2022/01/05 11:47:40;;;;;;;158.95;125.87;;;21.30;55.00;;;;;;4350217;60;21568;-34
2022/01/05 11:53:00;;;;;;;164.60;128.93;;;21.30;55.10;;;;;;4337995;64;21047;-33
2022/01/05 11:58:19;;;;;;;174.27;132.10;;;21.30;55.20;;;;;;4338305;60;21095;-35
2022/01/05 12:05:12;;;;;;;169.30;130.40;;;21.40;55.50;;;;;;4365756;60;21079;-35
2022/01/05 12:10:22;;;;;;;171.15;132.95;;;21.30;55.40;;;;;;4338435;60;21482;-35
2022/01/05 12:15:43;;;;;;;181.37;140.93;;;21.30;55.30;;;;;;4359791;60;21141;-33
2022/01/05 12:20:44;;;;;;;177.12;136.98;;;21.30;55.40;;;;;;4354798;60;22185;-34
2022/01/05 12:32:43;;;;;;;183.93;140.32;;;21.30;55.20;;;;;;4353994;60;21108;-36
2022/01/05 12:37:50;;;;;;;173.55;136.20;;;21.20;55.00;;;;;;4364523;60;21577;-34
2022/01/05 12:46:36;;;;;;;176.85;136.00;;;21.20;55.00;;;;;;4360043;60;21522;-35
2022/01/05 12:51:47;;;;;;;177.18;139.57;;;21.20;54.90;;;;;;4389119;60;21079;-33
2022/01/05 12:56:54;;;;;;;187.30;143.68;;;21.10;54.70;;;;;;4338444;61;21043;-35
2022/01/05 13:02:02;;;;;;;177.87;139.62;;;21.20;54.80;;;;;;4364682;60;21056;-31
2022/01/05 13:07:05;;;;;;;174.85;135.30;;;21.20;55.10;;;;;;4355451;60;21047;-34
2022/01/05 13:12:12;;;;;;;171.70;135.23;;;21.30;55.30;;;;;;4359146;60;21107;-34
2022/01/05 13:17:31;;;;;;;176.40;137.05;;;21.30;55.30;;;;;;4354156;60;21191;-34
2022/01/05 13:23:14;;;;;;;169.87;135.35;;;21.20;55.50;;;;;;4371238;60;21566;-35
2022/01/05 13:28:15;;;;;;;172.82;135.57;;;21.20;55.60;;;;;;4339453;60;21514;-30
2022/01/05 13:33:16;;;;;;;173.38;136.62;;;21.20;55.70;;;;;;4349493;60;21144;-38
2022/01/05 13:38:17;;;;;;;174.10;135.55;;;21.30;55.80;;;;;;4384339;60;21067;-30
2022/01/05 13:43:19;;;;;;;173.65;136.25;;;21.20;55.80;;;;;;4338302;64;21606;-34
2022/01/05 13:48:27;;;;;;;176.63;139.32;;;21.20;55.90;;;;;;4338222;64;21534;-35
2022/01/05 13:53:30;;;;;;;168.95;135.40;;;21.30;55.90;;;;;;4359875;60;21096;-33
2022/01/05 13:58:37;;;;;;;178.05;138.65;;;21.20;55.90;;;;;;4378485;60;21072;-33
2022/01/05 14:03:44;;;;;;;173.75;135.95;;;21.20;56.00;;;;;;4344678;60;21505;-32
2022/01/05 14:08:44;;;;;;;183.75;142.32;;;21.30;56.10;;;;;;4386798;60;21171;-33
2022/01/05 14:13:51;;;;;;;170.68;132.45;;;21.20;56.10;;;;;;4358665;60;21721;-34
2022/01/05 14:18:59;;;;;;;169.93;130.12;;;21.30;56.30;;;;;;4337953;64;21052;-32
2022/01/05 14:24:01;;;;;;;186.90;143.13;;;21.30;56.10;;;;;;4344771;60;21609;-31
2022/01/05 14:29:02;;;;;;;174.12;135.90;;;21.30;56.10;;;;;;4342790;60;21617;-35
2022/01/05 14:34:03;;;;;;;170.95;133.77;;;21.30;56.00;;;;;;4395596;60;21051;-32
2022/01/05 14:39:13;;;;;;;188.02;143.18;;;21.30;56.00;;;;;;4354662;60;21063;-31
2022/01/05 14:44:27;;;;;;;186.73;142.13;;;21.30;56.10;;;;;;4349717;60;21610;-34
2022/01/05 14:49:30;;;;;;;172.50;132.40;;;21.30;55.90;;;;;;4339478;60;21544;-36
2022/01/05 14:54:36;;;;;;;178.25;141.68;;;21.20;55.80;;;;;;4359743;60;21058;-31
2022/01/05 14:59:37;;;;;;;177.90;139.43;;;21.20;55.70;;;;;;4352270;60;21564;-34
2022/01/05 15:04:39;;;;;;;188.27;141.70;;;21.20;55.60;;;;;;4338606;64;21136;-36
2022/01/05 15:09:42;;;;;;;178.55;139.90;;;21.20;55.50;;;;;;4340354;60;21637;-33
2022/01/05 15:14:44;;;;;;;174.70;138.15;;;21.20;55.40;;;;;;4372297;60;21582;-35
2022/01/05 15:19:45;;;;;;;177.70;139.52;;;21.20;55.30;;;;;;4339466;60;21104;-33
2022/01/05 15:24:46;;;;;;;178.70;139.77;;;21.20;55.20;;;;;;4352077;60;21529;-35
2022/01/05 15:29:47;;;;;;;178.07;138.00;;;21.20;55.10;;;;;;4344717;60;21067;-33
2022/01/05 15:34:47;;;;;;;178.75;136.93;;;21.20;55.00;;;;;;4358116;60;21538;-36
2022/01/05 15:39:48;;;;;;;177.93;138.15;;;21.20;54.90;;;;;;4347884;60;21055;-35
2022/01/05 15:44:49;;;;;;;175.18;138.80;;;21.10;54.40;;;;;;4339116;60;21545;-37
2022/01/05 15:49:50;;;;;;;173.52;137.05;;;21.10;54.70;;;;;;4350410;60;21060;-36
2022/01/05 15:54:56;;;;;;;170.40;129.50;;;21.10;54.60;;;;;;4348508;60;21542;-35
2022/01/05 16:05:17;;;;;;;173.80;131.68;;;21.00;51.90;;;;;;4338953;64;21067;-33
2022/01/05 16:10:19;;;;;;;174.40;129.75;;;21.00;52.80;;;;;;4338194;64;21188;-34
2022/01/05 16:15:20;;;;;;;159.75;123.87;;;21.00;52.70;;;;;;4354093;60;21545;-34
2022/01/05 16:20:22;;;;;;;172.02;130.55;;;20.90;52.90;;;;;;4360287;60;21074;-33
2022/01/05 16:25:24;;;;;;;169.98;130.48;;;20.90;52.70;;;;;;4358886;60;21125;-32
2022/01/05 16:30:25;;;;;;;167.00;128.68;;;20.90;52.80;;;;;;4344108;60;21591;-32
2022/01/05 16:35:29;;;;;;;166.68;126.68;;;20.90;52.80;;;;;;4359756;60;21056;-36
2022/01/05 16:40:32;;;;;;;160.60;122.70;;;20.80;52.90;;;;;;4388095;60;22527;-36
2022/01/05 16:45:34;;;;;;;154.80;121.82;;;20.80;52.90;;;;;;4338849;64;21506;-35
2022/01/05 16:50:35;;;;;;;157.00;121.82;;;20.80;52.90;;;;;;4391653;60;21075;-34
2022/01/05 16:55:38;;;;;;;159.77;123.15;;;20.80;52.90;;;;;;4346684;60;21578;-35
2022/01/05 17:00:39;;;;;;;161.93;126.53;;;20.80;52.90;;;;;;4346424;60;21616;-36
2022/01/05 17:05:43;;;;;;;163.40;124.97;;;20.80;52.90;;;;;;4353916;60;21533;-38
2022/01/05 17:10:46;;;;;;;161.00;123.68;;;20.80;52.90;;;;;;4360582;60;21083;-34
2022/01/05 17:15:49;;;;;;;157.18;120.07;;;20.80;52.90;;;;;;4352027;60;21201;-35
2022/01/05 17:20:50;;;;;;;158.20;122.97;;;20.70;52.90;;;;;;4341960;60;21028;-32
2022/01/05 17:25:51;;;;;;;153.20;118.62;;;20.70;52.90;;;;;;4355625;60;21116;-37
2022/01/05 17:30:52;;;;;;;154.38;118.78;;;20.70;52.90;;;;;;4338476;60;21569;-36
2022/01/05 17:35:53;;;;;;;160.20;119.87;;;20.70;52.90;;;;;;4341947;60;21114;-35
2022/01/05 17:40:54;;;;;;;162.65;124.90;;;20.70;52.80;;;;;;4355928;60;21059;-35
2022/01/05 17:45:55;;;;;;;165.23;124.78;;;20.70;52.80;;;;;;4352517;60;21602;-38
2022/01/05 17:50:57;;;;;;;166.57;126.05;;;20.70;52.80;;;;;;4366037;60;21064;-28
2022/01/05 17:55:58;;;;;;;164.45;126.20;;;20.70;52.80;;;;;;4351308;60;21080;-37
2022/01/05 18:00:59;;;;;;;165.55;129.30;;;20.70;52.80;;;;;;4344410;60;21112;-33
2022/01/05 18:06:01;;;;;;;163.27;124.82;;;20.70;52.80;;;;;;4339085;61;21509;-33
2022/01/05 18:11:02;;;;;;;165.18;126.53;;;20.70;52.80;;;;;;4353878;60;21553;-32
2022/01/05 18:16:12;;;;;;;167.10;125.93;;;20.70;52.80;;;;;;4338718;64;21096;-34
2022/01/05 18:21:15;;;;;;;171.43;129.82;;;20.60;52.70;;;;;;4340427;60;21123;-32
2022/01/05 18:26:19;;;;;;;167.50;130.10;;;20.60;52.70;;;;;;4343568;60;21178;-32
2022/01/05 18:31:21;;;;;;;168.07;128.23;;;20.60;52.70;;;;;;4338103;64;21514;-37
2022/01/05 18:36:22;;;;;;;166.43;128.65;;;20.70;52.70;;;;;;4348634;60;21123;-33
2022/01/05 18:41:23;;;;;;;169.62;130.07;;;20.60;52.60;;;;;;4338719;64;21111;-33
2022/01/05 18:46:25;;;;;;;173.00;129.40;;;20.70;52.70;;;;;;4340130;60;21494;-35
2022/01/05 18:51:26;;;;;;;167.02;129.55;;;20.70;52.70;;;;;;4360197;60;21063;-36
2022/01/05 18:56:30;;;;;;;173.73;128.50;;;20.70;52.70;;;;;;4375505;60;21063;-35
2022/01/05 19:01:31;;;;;;;167.70;128.25;;;20.60;52.70;;;;;;4361787;60;21530;-34
2022/01/05 19:06:33;;;;;;;168.87;128.70;;;20.70;52.60;;;;;;4338776;64;21509;-35
2022/01/05 19:11:33;;;;;;;169.98;126.40;;;20.60;52.60;;;;;;4337572;64;21662;-34
2022/01/05 19:16:34;;;;;;;160.07;120.13;;;20.60;52.50;;;;;;4344476;60;21056;-34
2022/01/05 19:21:35;;;;;;;161.70;122.18;;;20.60;52.50;;;;;;4357656;60;21533;-33
2022/01/05 19:26:36;;;;;;;165.05;124.55;;;20.60;52.50;;;;;;4347424;60;21097;-32
2022/01/05 19:31:37;;;;;;;158.37;123.30;;;20.60;52.40;;;;;;4357016;60;21069;-33
2022/01/05 19:36:38;;;;;;;162.23;121.82;;;20.60;52.40;;;;;;4405086;60;21597;-33
2022/01/05 19:41:39;;;;;;;157.10;122.65;;;20.60;52.40;;;;;;4357155;60;21111;-31
2022/01/05 19:46:40;;;;;;;156.63;119.43;;;20.60;52.40;;;;;;4344729;60;21088;-33
2022/01/05 19:51:57;;;;;;;153.30;116.35;;;20.60;52.40;;;;;;4338330;64;21658;-31
2022/01/05 19:57:01;;;;;;;152.27;116.35;;;20.60;52.30;;;;;;4350917;60;21522;-31
2022/01/05 20:02:08;;;;;;;146.95;113.95;;;20.60;52.30;;;;;;4354284;60;21997;-35
2022/01/05 20:07:10;;;;;;;150.85;116.18;;;20.60;52.20;;;;;;4372910;60;21055;-36
2022/01/05 20:12:11;;;;;;;146.25;108.68;;;20.70;52.30;;;;;;4343669;60;21590;-35
2022/01/05 20:17:13;;;;;;;150.32;116.18;;;20.60;52.20;;;;;;4338777;64;21602;-35
2022/01/05 20:22:13;;;;;;;148.98;112.88;;;20.60;52.10;;;;;;4364681;60;21662;-29
2022/01/05 20:27:14;;;;;;;140.35;110.50;;;20.50;52.10;;;;;;4344793;60;21166;-33
2022/01/05 20:32:16;;;;;;;140.57;109.45;;;20.60;52.10;;;;;;4338276;64;21606;-34
2022/01/05 20:37:17;;;;;;;146.82;111.40;;;20.60;52.10;;;;;;4347092;60;21126;-34
2022/01/05 20:42:18;;;;;;;142.02;109.28;;;20.60;52.10;;;;;;4341184;60;21634;-35
2022/01/05 20:47:19;;;;;;;137.57;106.85;;;20.60;52.10;;;;;;4338581;64;21139;-35
2022/01/05 20:52:19;;;;;;;135.10;104.80;;;20.60;52.00;;;;;;4339667;60;21132;-33
2022/01/05 20:57:20;;;;;;;136.40;107.43;;;20.60;52.00;;;;;;4341125;60;21117;-31
2022/01/05 21:02:22;;;;;;;134.77;105.57;;;20.50;51.90;;;;;;4342203;60;21598;-32
2022/01/05 21:07:23;;;;;;;132.43;104.03;;;20.50;51.90;;;;;;4340406;60;21056;-32
2022/01/05 21:12:24;;;;;;;132.82;103.05;;;20.50;52.00;;;;;;4340972;60;21104;-29
2022/01/05 21:17:38;;;;;;;131.25;105.70;;;20.60;51.90;;;;;;4356215;60;21598;-31
2022/01/05 21:22:39;;;;;;;125.38;97.82;;;20.50;51.80;;;;;;4339219;62;21573;-35
2022/01/05 21:27:43;;;;;;;126.85;100.72;;;20.50;51.80;;;;;;4348078;60;21156;-33
2022/01/05 21:32:44;;;;;;;136.50;104.32;;;20.60;51.90;;;;;;4338536;64;21625;-35
2022/01/05 21:37:46;;;;;;;125.72;102.35;;;20.50;51.80;;;;;;4363294;60;21675;-35
2022/01/05 21:42:48;;;;;;;131.57;102.97;;;20.50;51.80;;;;;;4374384;60;21526;-36
2022/01/05 21:47:48;;;;;;;127.40;99.55;;;20.50;51.70;;;;;;4343583;60;21125;-34
2022/01/05 21:52:50;;;;;;;126.62;99.05;;;20.50;52.40;;;;;;4338659;64;21084;-32
2022/01/05 21:57:50;;;;;;;127.57;99.82;;;20.50;51.70;;;;;;4345927;60;21054;-32
2022/01/05 22:02:52;;;;;;;124.38;99.20;;;20.50;51.70;;;;;;4338805;64;21584;-33
2022/01/05 22:07:54;;;;;;;119.62;95.18;;;20.50;51.60;;;;;;4348951;60;21615;-35
2022/01/05 22:12:55;;;;;;;121.30;97.65;;;20.50;51.60;;;;;;4376628;60;21267;-34
2022/01/05 22:17:56;;;;;;;120.18;96.75;;;20.60;52.40;;;;;;4348579;60;21155;-35
2022/01/05 22:22:56;;;;;;;124.80;97.12;;;20.50;51.60;;;;;;4339295;60;21082;-35
2022/01/05 22:27:57;;;;;;;110.18;89.53;;;20.50;51.60;;;;;;4351337;60;21083;-36
2022/01/05 22:32:58;;;;;;;118.78;95.47;;;20.50;51.50;;;;;;4360939;60;21118;-35
2022/01/05 22:37:59;;;;;;;116.90;91.90;;;20.50;51.60;;;;;;4341187;60;21666;-37
2022/01/05 22:43:01;;;;;;;108.57;87.18;;;20.50;51.50;;;;;;4356243;60;21039;-34
2022/01/05 22:48:02;;;;;;;110.78;90.43;;;20.50;51.60;;;;;;4361904;60;21546;-34
2022/01/05 22:53:03;;;;;;;114.28;91.95;;;20.50;51.50;;;;;;4386288;60;21055;-33
2022/01/05 22:58:03;;;;;;;112.07;90.62;;;20.50;51.50;;;;;;4338313;62;21124;-35
2022/01/05 23:03:05;;;;;;;111.32;90.87;;;20.50;51.40;;;;;;4348589;60;21096;-35
2022/01/05 23:08:07;;;;;;;106.00;84.87;;;20.50;51.40;;;;;;4338495;64;21091;-36
2022/01/05 23:13:09;;;;;;;111.35;88.35;;;20.50;51.40;;;;;;4339189;60;21168;-34
2022/01/05 23:18:10;;;;;;;110.85;88.68;;;20.50;51.30;;;;;;4350047;60;21080;-35
2022/01/05 23:23:13;;;;;;;106.57;85.30;;;20.50;51.40;;;;;;4359328;60;21118;-33
2022/01/05 23:28:15;;;;;;;102.03;83.12;;;20.50;51.30;;;;;;4344357;60;21076;-33
2022/01/05 23:33:18;;;;;;;105.53;85.12;;;20.50;51.30;;;;;;4347005;60;21119;-29
2022/01/05 23:38:20;;;;;;;100.05;80.45;;;20.50;51.20;;;;;;4353325;60;22645;-34
2022/01/05 23:43:28;;;;;;;104.40;85.62;;;20.50;51.20;;;;;;4338105;61;21075;-32
2022/01/05 23:48:32;;;;;;;101.15;82.20;;;20.50;51.20;;;;;;4342504;60;21601;-35
2022/01/05 23:53:34;;;;;;;93.87;76.68;;;20.50;51.20;;;;;;4342890;60;21050;-34
2022/01/05 23:58:35;;;;;;;96.57;79.15;;;20.50;51.20;;;;;;4367622;60;21048;-33
